sensor_id;sensor_type;location;lat;lon;timestamp;temperature;humidity
65036;DHT22;51603;49.300;8.880;2024-02-26T00:00:15;6.60;99.90
65036;DHT22;51603;49.300;8.880;2024-02-26T00:02:41;6.60;99.90
65036;DHT22;51603;49.300;8.880;2024-02-26T00:05:07;6.60;99.90
65036;DHT22;51603;49.300;8.880;2024-02-26T00:07:34;6.60;99.90
65036;DHT22;51603;49.300;8.880;2024-02-26T00:09:59;6.60;99.90
65036;DHT22;51603;49.300;8.880;2024-02-26T00:12:25;6.60;99.90
65036;DHT22;51603;49.300;8.880;2024-02-26T00:14:50;6.60;99.90
65036;DHT22;51603;49.300;8.880;2024-02-26T00:17:18;6.60;99.90
65036;DHT22;51603;49.300;8.880;2024-02-26T00:19:43;6.60;99.90
65036;DHT22;51603;49.300;8.880;2024-02-26T00:22:09;6.60;99.90
65036;DHT22;51603;49.300;8.880;2024-02-26T00:24:34;6.60;99.90
65036;DHT22;51603;49.300;8.880;2024-02-26T00:27:00;6.50;99.90
65036;DHT22;51603;49.300;8.880;2024-02-26T00:29:25;6.60;99.90
65036;DHT22;51603;49.300;8.880;2024-02-26T00:31:51;6.60;99.90
65036;DHT22;51603;49.300;8.880;2024-02-26T00:34:17;6.60;99.90
65036;DHT22;51603;49.300;8.880;2024-02-26T00:36:42;6.60;99.90
65036;DHT22;51603;49.300;8.880;2024-02-26T00:39:08;6.50;99.90
65036;DHT22;51603;49.300;8.880;2024-02-26T00:41:38;6.50;99.90
65036;DHT22;51603;49.300;8.880;2024-02-26T00:44:03;6.50;99.90
65036;DHT22;51603;49.300;8.880;2024-02-26T00:46:29;6.60;99.90
65036;DHT22;51603;49.300;8.880;2024-02-26T00:48:54;6.50;99.90
65036;DHT22;51603;49.300;8.880;2024-02-26T00:51:20;6.50;99.90
65036;DHT22;51603;49.300;8.880;2024-02-26T00:53:45;6.50;99.90
65036;DHT22;51603;49.300;8.880;2024-02-26T00:56:11;6.50;99.90
65036;DHT22;51603;49.300;8.880;2024-02-26T00:58:36;6.50;99.90
65036;DHT22;51603;49.300;8.880;2024-02-26T01:01:02;6.50;99.90
65036;DHT22;51603;49.300;8.880;2024-02-26T01:03:28;6.50;99.90
65036;DHT22;51603;49.300;8.880;2024-02-26T01:05:54;6.40;99.90
65036;DHT22;51603;49.300;8.880;2024-02-26T01:08:19;6.50;99.90
65036;DHT22;51603;49.300;8.880;2024-02-26T01:10:45;6.50;99.90
65036;DHT22;51603;49.300;8.880;2024-02-26T01:13:11;6.50;99.90
65036;DHT22;51603;49.300;8.880;2024-02-26T01:15:36;6.50;99.90
65036;DHT22;51603;49.300;8.880;2024-02-26T01:18:02;6.50;99.90
65036;DHT22;51603;49.300;8.880;2024-02-26T01:20:28;6.50;99.90
65036;DHT22;51603;49.300;8.880;2024-02-26T01:22:53;6.50;99.90
65036;DHT22;51603;49.300;8.880;2024-02-26T01:25:19;6.50;99.90
65036;DHT22;51603;49.300;8.880;2024-02-26T01:27:44;6.50;99.90
65036;DHT22;51603;49.300;8.880;2024-02-26T01:30:10;6.50;99.90
65036;DHT22;51603;49.300;8.880;2024-02-26T01:32:37;6.50;99.90
65036;DHT22;51603;49.300;8.880;2024-02-26T01:35:02;6.50;99.90
65036;DHT22;51603;49.300;8.880;2024-02-26T01:37:35;6.50;99.90
65036;DHT22;51603;49.300;8.880;2024-02-26T01:40:01;6.50;99.90
65036;DHT22;51603;49.300;8.880;2024-02-26T01:42:29;6.50;99.90
65036;DHT22;51603;49.300;8.880;2024-02-26T01:44:56;6.50;99.90
65036;DHT22;51603;49.300;8.880;2024-02-26T01:47:22;6.50;99.90
65036;DHT22;51603;49.300;8.880;2024-02-26T01:49:48;6.50;99.90
65036;DHT22;51603;49.300;8.880;2024-02-26T01:52:14;6.50;99.90
65036;DHT22;51603;49.300;8.880;2024-02-26T01:54:42;6.50;99.90
65036;DHT22;51603;49.300;8.880;2024-02-26T01:57:10;6.50;99.90
65036;DHT22;51603;49.300;8.880;2024-02-26T01:59:36;6.50;99.90
65036;DHT22;51603;49.300;8.880;2024-02-26T02:02:06;6.50;99.90
65036;DHT22;51603;49.300;8.880;2024-02-26T02:04:32;6.50;99.90
65036;DHT22;51603;49.300;8.880;2024-02-26T02:07:00;6.50;99.90
65036;DHT22;51603;49.300;8.880;2024-02-26T02:09:27;6.50;99.90
65036;DHT22;51603;49.300;8.880;2024-02-26T02:11:54;6.50;99.90
65036;DHT22;51603;49.300;8.880;2024-02-26T02:14:20;6.40;99.90
65036;DHT22;51603;49.300;8.880;2024-02-26T02:16:46;6.50;99.90
65036;DHT22;51603;49.300;8.880;2024-02-26T02:19:13;6.50;99.90
65036;DHT22;51603;49.300;8.880;2024-02-26T02:21:38;6.40;99.90
65036;DHT22;51603;49.300;8.880;2024-02-26T02:24:04;6.40;99.90
65036;DHT22;51603;49.300;8.880;2024-02-26T02:26:29;6.40;99.90
65036;DHT22;51603;49.300;8.880;2024-02-26T02:28:55;6.40;99.90
65036;DHT22;51603;49.300;8.880;2024-02-26T02:31:21;6.40;99.90
65036;DHT22;51603;49.300;8.880;2024-02-26T02:33:46;6.40;99.90
65036;DHT22;51603;49.300;8.880;2024-02-26T02:36:12;6.30;99.90
65036;DHT22;51603;49.300;8.880;2024-02-26T02:38:38;6.30;99.90
65036;DHT22;51603;49.300;8.880;2024-02-26T02:41:04;6.30;99.90
65036;DHT22;51603;49.300;8.880;2024-02-26T02:43:29;6.40;99.90
65036;DHT22;51603;49.300;8.880;2024-02-26T02:45:55;6.30;99.90
65036;DHT22;51603;49.300;8.880;2024-02-26T02:48:20;6.30;99.90
65036;DHT22;51603;49.300;8.880;2024-02-26T02:50:46;6.30;99.90
65036;DHT22;51603;49.300;8.880;2024-02-26T02:53:11;6.30;99.90
65036;DHT22;51603;49.300;8.880;2024-02-26T02:55:37;6.20;99.90
65036;DHT22;51603;49.300;8.880;2024-02-26T02:58:02;6.20;99.90
65036;DHT22;51603;49.300;8.880;2024-02-26T03:00:28;6.20;99.90
65036;DHT22;51603;49.300;8.880;2024-02-26T03:02:53;6.20;99.90
65036;DHT22;51603;49.300;8.880;2024-02-26T03:05:19;6.20;99.90
65036;DHT22;51603;49.300;8.880;2024-02-26T03:07:44;6.20;99.90
65036;DHT22;51603;49.300;8.880;2024-02-26T03:10:10;6.30;99.90
65036;DHT22;51603;49.300;8.880;2024-02-26T03:12:36;6.30;99.90
65036;DHT22;51603;49.300;8.880;2024-02-26T03:15:01;6.30;99.90
65036;DHT22;51603;49.300;8.880;2024-02-26T03:17:28;6.30;99.90
65036;DHT22;51603;49.300;8.880;2024-02-26T03:19:54;6.30;99.90
65036;DHT22;51603;49.300;8.880;2024-02-26T03:22:20;6.30;99.90
65036;DHT22;51603;49.300;8.880;2024-02-26T03:24:46;6.30;99.90
65036;DHT22;51603;49.300;8.880;2024-02-26T03:27:11;6.30;99.90
65036;DHT22;51603;49.300;8.880;2024-02-26T03:29:38;6.30;99.90
65036;DHT22;51603;49.300;8.880;2024-02-26T03:32:07;6.30;99.90
65036;DHT22;51603;49.300;8.880;2024-02-26T03:34:33;6.30;99.90
65036;DHT22;51603;49.300;8.880;2024-02-26T03:37:02;6.30;99.90
65036;DHT22;51603;49.300;8.880;2024-02-26T03:39:27;6.30;99.90
65036;DHT22;51603;49.300;8.880;2024-02-26T03:41:53;6.20;99.90
65036;DHT22;51603;49.300;8.880;2024-02-26T03:44:19;6.20;99.90
65036;DHT22;51603;49.300;8.880;2024-02-26T03:46:45;6.20;99.90
65036;DHT22;51603;49.300;8.880;2024-02-26T03:49:10;6.20;99.90
65036;DHT22;51603;49.300;8.880;2024-02-26T03:51:36;6.10;99.90
65036;DHT22;51603;49.300;8.880;2024-02-26T03:54:02;6.10;99.90
65036;DHT22;51603;49.300;8.880;2024-02-26T03:56:28;6.10;99.90
65036;DHT22;51603;49.300;8.880;2024-02-26T03:58:54;6.10;99.90
65036;DHT22;51603;49.300;8.880;2024-02-26T04:01:19;6.00;99.90
65036;DHT22;51603;49.300;8.880;2024-02-26T04:03:45;6.00;99.90
65036;DHT22;51603;49.300;8.880;2024-02-26T04:06:11;6.00;99.90
65036;DHT22;51603;49.300;8.880;2024-02-26T04:08:40;6.00;99.90
65036;DHT22;51603;49.300;8.880;2024-02-26T04:11:06;6.00;99.90
65036;DHT22;51603;49.300;8.880;2024-02-26T04:13:33;6.00;99.90
65036;DHT22;51603;49.300;8.880;2024-02-26T04:15:59;6.00;99.90
65036;DHT22;51603;49.300;8.880;2024-02-26T04:18:27;5.90;99.90
65036;DHT22;51603;49.300;8.880;2024-02-26T04:20:52;5.90;99.90
65036;DHT22;51603;49.300;8.880;2024-02-26T04:23:18;5.90;99.90
65036;DHT22;51603;49.300;8.880;2024-02-26T04:25:44;5.90;99.90
65036;DHT22;51603;49.300;8.880;2024-02-26T04:28:09;5.80;99.90
65036;DHT22;51603;49.300;8.880;2024-02-26T04:30:35;5.80;99.90
65036;DHT22;51603;49.300;8.880;2024-02-26T04:33:00;5.80;99.90
65036;DHT22;51603;49.300;8.880;2024-02-26T04:35:26;5.70;99.90
65036;DHT22;51603;49.300;8.880;2024-02-26T04:37:51;5.70;99.90
65036;DHT22;51603;49.300;8.880;2024-02-26T04:40:17;5.70;99.90
65036;DHT22;51603;49.300;8.880;2024-02-26T04:42:42;5.70;99.90
65036;DHT22;51603;49.300;8.880;2024-02-26T04:45:08;5.70;99.90
65036;DHT22;51603;49.300;8.880;2024-02-26T04:47:34;5.70;99.90
65036;DHT22;51603;49.300;8.880;2024-02-26T04:49:59;5.70;99.90
65036;DHT22;51603;49.300;8.880;2024-02-26T04:52:25;5.70;99.90
65036;DHT22;51603;49.300;8.880;2024-02-26T04:54:51;5.70;99.90
65036;DHT22;51603;49.300;8.880;2024-02-26T04:57:16;5.70;99.90
65036;DHT22;51603;49.300;8.880;2024-02-26T04:59:44;5.70;99.90
65036;DHT22;51603;49.300;8.880;2024-02-26T05:02:10;5.70;99.90
65036;DHT22;51603;49.300;8.880;2024-02-26T05:04:36;5.70;99.90
65036;DHT22;51603;49.300;8.880;2024-02-26T05:07:01;5.70;99.90
65036;DHT22;51603;49.300;8.880;2024-02-26T05:09:26;5.70;99.90
65036;DHT22;51603;49.300;8.880;2024-02-26T05:11:52;5.70;99.90
65036;DHT22;51603;49.300;8.880;2024-02-26T05:14:18;5.70;99.90
65036;DHT22;51603;49.300;8.880;2024-02-26T05:16:43;5.60;99.90
65036;DHT22;51603;49.300;8.880;2024-02-26T05:19:09;5.60;99.90
65036;DHT22;51603;49.300;8.880;2024-02-26T05:21:34;5.60;99.90
65036;DHT22;51603;49.300;8.880;2024-02-26T05:24:00;5.60;99.90
65036;DHT22;51603;49.300;8.880;2024-02-26T05:26:25;5.60;99.90
65036;DHT22;51603;49.300;8.880;2024-02-26T05:28:51;5.60;99.90
65036;DHT22;51603;49.300;8.880;2024-02-26T05:31:17;5.60;99.90
65036;DHT22;51603;49.300;8.880;2024-02-26T05:33:43;5.60;99.90
65036;DHT22;51603;49.300;8.880;2024-02-26T05:36:09;5.60;99.90
65036;DHT22;51603;49.300;8.880;2024-02-26T05:38:34;5.60;99.90
65036;DHT22;51603;49.300;8.880;2024-02-26T05:41:00;5.60;99.90
65036;DHT22;51603;49.300;8.880;2024-02-26T05:43:26;5.60;99.90
65036;DHT22;51603;49.300;8.880;2024-02-26T05:45:52;5.60;99.90
65036;DHT22;51603;49.300;8.880;2024-02-26T05:48:17;5.60;99.90
65036;DHT22;51603;49.300;8.880;2024-02-26T05:50:45;5.60;99.90
65036;DHT22;51603;49.300;8.880;2024-02-26T05:53:11;5.60;99.90
65036;DHT22;51603;49.300;8.880;2024-02-26T05:55:36;5.60;99.90
65036;DHT22;51603;49.300;8.880;2024-02-26T05:58:03;5.60;99.90
65036;DHT22;51603;49.300;8.880;2024-02-26T06:00:28;5.60;99.90
65036;DHT22;51603;49.300;8.880;2024-02-26T06:02:54;5.60;99.90
65036;DHT22;51603;49.300;8.880;2024-02-26T06:05:19;5.60;99.90
65036;DHT22;51603;49.300;8.880;2024-02-26T06:07:45;5.60;99.90
65036;DHT22;51603;49.300;8.880;2024-02-26T06:10:11;5.60;99.90
65036;DHT22;51603;49.300;8.880;2024-02-26T06:12:36;5.60;99.90
65036;DHT22;51603;49.300;8.880;2024-02-26T06:15:02;5.60;99.90
65036;DHT22;51603;49.300;8.880;2024-02-26T06:17:28;5.60;99.90
65036;DHT22;51603;49.300;8.880;2024-02-26T06:19:53;5.60;99.90
65036;DHT22;51603;49.300;8.880;2024-02-26T06:22:19;5.60;99.90
65036;DHT22;51603;49.300;8.880;2024-02-26T06:24:45;5.60;99.90
65036;DHT22;51603;49.300;8.880;2024-02-26T06:27:10;5.60;99.90
65036;DHT22;51603;49.300;8.880;2024-02-26T06:29:36;5.60;99.90
65036;DHT22;51603;49.300;8.880;2024-02-26T06:32:01;5.60;99.90
65036;DHT22;51603;49.300;8.880;2024-02-26T06:34:27;5.60;99.90
65036;DHT22;51603;49.300;8.880;2024-02-26T06:36:52;5.60;99.90
65036;DHT22;51603;49.300;8.880;2024-02-26T06:39:17;5.60;99.90
65036;DHT22;51603;49.300;8.880;2024-02-26T06:41:44;5.60;99.90
65036;DHT22;51603;49.300;8.880;2024-02-26T06:44:12;5.60;99.90
65036;DHT22;51603;49.300;8.880;2024-02-26T06:46:38;5.60;99.90
65036;DHT22;51603;49.300;8.880;2024-02-26T06:49:03;5.60;99.90
65036;DHT22;51603;49.300;8.880;2024-02-26T06:51:29;5.60;99.90
65036;DHT22;51603;49.300;8.880;2024-02-26T06:53:54;5.70;99.90
65036;DHT22;51603;49.300;8.880;2024-02-26T06:56:20;5.70;99.90
65036;DHT22;51603;49.300;8.880;2024-02-26T06:58:45;5.70;99.90
65036;DHT22;51603;49.300;8.880;2024-02-26T07:01:12;5.70;99.90
65036;DHT22;51603;49.300;8.880;2024-02-26T07:03:40;5.70;99.90
65036;DHT22;51603;49.300;8.880;2024-02-26T07:06:06;5.70;99.90
65036;DHT22;51603;49.300;8.880;2024-02-26T07:08:32;5.60;99.90
65036;DHT22;51603;49.300;8.880;2024-02-26T07:10:57;5.60;99.90
65036;DHT22;51603;49.300;8.880;2024-02-26T07:13:23;5.60;99.90
65036;DHT22;51603;49.300;8.880;2024-02-26T07:15:48;5.60;99.90
65036;DHT22;51603;49.300;8.880;2024-02-26T07:18:14;5.60;99.90
65036;DHT22;51603;49.300;8.880;2024-02-26T07:20:40;5.60;99.90
65036;DHT22;51603;49.300;8.880;2024-02-26T07:23:05;5.70;99.90
65036;DHT22;51603;49.300;8.880;2024-02-26T07:25:32;5.70;99.90
65036;DHT22;51603;49.300;8.880;2024-02-26T07:27:57;5.70;99.90
65036;DHT22;51603;49.300;8.880;2024-02-26T07:30:23;5.70;99.90
65036;DHT22;51603;49.300;8.880;2024-02-26T07:32:50;5.70;99.90
65036;DHT22;51603;49.300;8.880;2024-02-26T07:35:15;5.70;99.90
65036;DHT22;51603;49.300;8.880;2024-02-26T07:37:42;5.70;99.90
65036;DHT22;51603;49.300;8.880;2024-02-26T07:40:08;5.70;99.90
65036;DHT22;51603;49.300;8.880;2024-02-26T07:42:34;5.70;99.90
65036;DHT22;51603;49.300;8.880;2024-02-26T07:45:00;5.80;99.90
65036;DHT22;51603;49.300;8.880;2024-02-26T07:47:25;5.80;99.90
65036;DHT22;51603;49.300;8.880;2024-02-26T07:49:51;5.90;99.90
65036;DHT22;51603;49.300;8.880;2024-02-26T07:52:16;5.90;99.90
65036;DHT22;51603;49.300;8.880;2024-02-26T07:54:42;5.90;99.90
65036;DHT22;51603;49.300;8.880;2024-02-26T07:57:07;5.90;99.90
65036;DHT22;51603;49.300;8.880;2024-02-26T07:59:33;6.00;99.90
65036;DHT22;51603;49.300;8.880;2024-02-26T08:01:58;6.00;99.90
65036;DHT22;51603;49.300;8.880;2024-02-26T08:04:24;6.00;99.90
65036;DHT22;51603;49.300;8.880;2024-02-26T08:06:51;6.00;99.90
65036;DHT22;51603;49.300;8.880;2024-02-26T08:09:17;6.10;99.90
65036;DHT22;51603;49.300;8.880;2024-02-26T08:11:42;6.10;99.90
65036;DHT22;51603;49.300;8.880;2024-02-26T08:14:08;6.10;99.90
65036;DHT22;51603;49.300;8.880;2024-02-26T08:16:34;6.20;99.90
65036;DHT22;51603;49.300;8.880;2024-02-26T08:18:59;6.20;99.90
65036;DHT22;51603;49.300;8.880;2024-02-26T08:21:24;6.20;99.90
65036;DHT22;51603;49.300;8.880;2024-02-26T08:23:50;6.30;99.90
65036;DHT22;51603;49.300;8.880;2024-02-26T08:26:15;6.40;99.90
65036;DHT22;51603;49.300;8.880;2024-02-26T08:28:42;6.50;99.90
65036;DHT22;51603;49.300;8.880;2024-02-26T08:31:08;6.50;99.90
65036;DHT22;51603;49.300;8.880;2024-02-26T08:33:33;6.60;99.90
65036;DHT22;51603;49.300;8.880;2024-02-26T08:36:08;6.60;99.90
65036;DHT22;51603;49.300;8.880;2024-02-26T08:38:33;6.60;99.90
65036;DHT22;51603;49.300;8.880;2024-02-26T08:41:01;6.70;99.90
65036;DHT22;51603;49.300;8.880;2024-02-26T08:43:28;6.80;99.90
65036;DHT22;51603;49.300;8.880;2024-02-26T08:45:53;6.90;99.90
65036;DHT22;51603;49.300;8.880;2024-02-26T08:48:19;6.90;99.90
65036;DHT22;51603;49.300;8.880;2024-02-26T08:50:44;7.00;99.90
65036;DHT22;51603;49.300;8.880;2024-02-26T08:53:10;7.00;99.90
65036;DHT22;51603;49.300;8.880;2024-02-26T08:55:35;7.00;99.90
65036;DHT22;51603;49.300;8.880;2024-02-26T08:58:01;7.00;99.90
65036;DHT22;51603;49.300;8.880;2024-02-26T09:00:26;7.00;99.90
65036;DHT22;51603;49.300;8.880;2024-02-26T09:02:52;7.00;99.90
65036;DHT22;51603;49.300;8.880;2024-02-26T09:05:17;7.00;99.90
65036;DHT22;51603;49.300;8.880;2024-02-26T09:07:43;6.90;99.90
65036;DHT22;51603;49.300;8.880;2024-02-26T09:10:09;6.90;99.90
65036;DHT22;51603;49.300;8.880;2024-02-26T09:12:38;6.90;99.90
65036;DHT22;51603;49.300;8.880;2024-02-26T09:15:07;6.90;99.90
65036;DHT22;51603;49.300;8.880;2024-02-26T09:17:33;6.90;99.90
65036;DHT22;51603;49.300;8.880;2024-02-26T09:19:59;7.00;99.90
65036;DHT22;51603;49.300;8.880;2024-02-26T09:22:24;7.00;99.90
65036;DHT22;51603;49.300;8.880;2024-02-26T09:24:49;7.00;99.90
65036;DHT22;51603;49.300;8.880;2024-02-26T09:27:16;7.10;99.90
65036;DHT22;51603;49.300;8.880;2024-02-26T09:29:42;7.10;99.90
65036;DHT22;51603;49.300;8.880;2024-02-26T09:32:08;7.20;99.90
65036;DHT22;51603;49.300;8.880;2024-02-26T09:34:33;7.30;99.90
65036;DHT22;51603;49.300;8.880;2024-02-26T09:36:59;7.30;99.90
65036;DHT22;51603;49.300;8.880;2024-02-26T09:39:25;7.40;99.90
65036;DHT22;51603;49.300;8.880;2024-02-26T09:41:51;7.40;99.90
65036;DHT22;51603;49.300;8.880;2024-02-26T09:44:20;7.40;99.90
65036;DHT22;51603;49.300;8.880;2024-02-26T09:46:48;7.40;99.90
65036;DHT22;51603;49.300;8.880;2024-02-26T09:49:17;7.40;99.90
65036;DHT22;51603;49.300;8.880;2024-02-26T09:51:43;7.40;99.90
65036;DHT22;51603;49.300;8.880;2024-02-26T09:54:13;7.40;99.90
65036;DHT22;51603;49.300;8.880;2024-02-26T09:56:39;7.50;99.90
65036;DHT22;51603;49.300;8.880;2024-02-26T09:59:13;7.50;99.90
65036;DHT22;51603;49.300;8.880;2024-02-26T10:01:42;7.60;99.90
65036;DHT22;51603;49.300;8.880;2024-02-26T10:04:08;7.60;99.90
65036;DHT22;51603;49.300;8.880;2024-02-26T10:06:34;7.70;99.90
65036;DHT22;51603;49.300;8.880;2024-02-26T10:09:01;7.70;99.90
65036;DHT22;51603;49.300;8.880;2024-02-26T10:11:30;7.80;99.90
65036;DHT22;51603;49.300;8.880;2024-02-26T10:13:55;7.90;99.90
65036;DHT22;51603;49.300;8.880;2024-02-26T10:16:21;8.00;99.90
65036;DHT22;51603;49.300;8.880;2024-02-26T10:18:50;8.00;99.90
65036;DHT22;51603;49.300;8.880;2024-02-26T10:21:20;8.10;99.90
65036;DHT22;51603;49.300;8.880;2024-02-26T10:23:46;8.10;99.90
65036;DHT22;51603;49.300;8.880;2024-02-26T10:26:13;8.20;99.90
65036;DHT22;51603;49.300;8.880;2024-02-26T10:28:39;8.20;99.90
65036;DHT22;51603;49.300;8.880;2024-02-26T10:31:06;8.30;99.90
65036;DHT22;51603;49.300;8.880;2024-02-26T10:33:35;8.40;99.90
65036;DHT22;51603;49.300;8.880;2024-02-26T10:36:05;8.50;99.90
65036;DHT22;51603;49.300;8.880;2024-02-26T10:38:32;8.50;99.90
65036;DHT22;51603;49.300;8.880;2024-02-26T10:40:58;8.50;99.90
65036;DHT22;51603;49.300;8.880;2024-02-26T10:43:25;8.50;99.90
65036;DHT22;51603;49.300;8.880;2024-02-26T10:45:50;8.50;99.90
65036;DHT22;51603;49.300;8.880;2024-02-26T10:48:16;8.50;99.90
65036;DHT22;51603;49.300;8.880;2024-02-26T10:50:43;8.60;99.90
65036;DHT22;51603;49.300;8.880;2024-02-26T10:53:15;8.60;99.90
65036;DHT22;51603;49.300;8.880;2024-02-26T10:55:44;8.70;99.90
65036;DHT22;51603;49.300;8.880;2024-02-26T10:58:12;8.90;99.90
65036;DHT22;51603;49.300;8.880;2024-02-26T11:00:39;9.10;99.90
65036;DHT22;51603;49.300;8.880;2024-02-26T11:03:06;9.20;99.90
65036;DHT22;51603;49.300;8.880;2024-02-26T11:05:33;9.40;99.90
65036;DHT22;51603;49.300;8.880;2024-02-26T11:08:00;9.60;99.90
65036;DHT22;51603;49.300;8.880;2024-02-26T11:10:27;9.80;99.90
65036;DHT22;51603;49.300;8.880;2024-02-26T11:12:54;10.00;99.90
65036;DHT22;51603;49.300;8.880;2024-02-26T11:15:21;10.10;99.90
65036;DHT22;51603;49.300;8.880;2024-02-26T11:17:47;10.10;99.90
65036;DHT22;51603;49.300;8.880;2024-02-26T11:20:14;10.20;99.90
65036;DHT22;51603;49.300;8.880;2024-02-26T11:22:40;10.20;99.90
65036;DHT22;51603;49.300;8.880;2024-02-26T11:25:06;10.20;99.90
65036;DHT22;51603;49.300;8.880;2024-02-26T11:27:37;10.20;99.90
65036;DHT22;51603;49.300;8.880;2024-02-26T11:30:05;10.30;99.90
65036;DHT22;51603;49.300;8.880;2024-02-26T11:32:34;10.30;99.90
65036;DHT22;51603;49.300;8.880;2024-02-26T11:35:01;10.40;99.90
65036;DHT22;51603;49.300;8.880;2024-02-26T11:37:27;10.50;99.90
65036;DHT22;51603;49.300;8.880;2024-02-26T11:39:52;10.50;99.90
65036;DHT22;51603;49.300;8.880;2024-02-26T11:42:23;10.60;99.90
65036;DHT22;51603;49.300;8.880;2024-02-26T11:44:49;10.70;99.90
65036;DHT22;51603;49.300;8.880;2024-02-26T11:47:20;10.90;99.90
65036;DHT22;51603;49.300;8.880;2024-02-26T11:49:46;11.00;99.90
65036;DHT22;51603;49.300;8.880;2024-02-26T11:52:13;11.20;99.90
65036;DHT22;51603;49.300;8.880;2024-02-26T11:54:49;11.50;99.90
65036;DHT22;51603;49.300;8.880;2024-02-26T11:57:38;11.80;99.90
65036;DHT22;51603;49.300;8.880;2024-02-26T12:02:51;12.20;99.90
65036;DHT22;51603;49.300;8.880;2024-02-26T12:05:23;12.20;99.90
65036;DHT22;51603;49.300;8.880;2024-02-26T12:07:56;12.20;99.90
65036;DHT22;51603;49.300;8.880;2024-02-26T12:10:31;12.40;99.90
65036;DHT22;51603;49.300;8.880;2024-02-26T12:13:07;12.70;99.90
65036;DHT22;51603;49.300;8.880;2024-02-26T12:15:37;12.80;99.90
65036;DHT22;51603;49.300;8.880;2024-02-26T12:18:04;12.80;99.90
65036;DHT22;51603;49.300;8.880;2024-02-26T12:20:31;12.80;99.90
65036;DHT22;51603;49.300;8.880;2024-02-26T12:22:56;13.00;99.90
65036;DHT22;51603;49.300;8.880;2024-02-26T12:25:25;13.10;99.90
65036;DHT22;51603;49.300;8.880;2024-02-26T12:27:51;13.00;99.90
65036;DHT22;51603;49.300;8.880;2024-02-26T12:30:17;12.80;99.90
65036;DHT22;51603;49.300;8.880;2024-02-26T12:32:43;12.90;99.90
65036;DHT22;51603;49.300;8.880;2024-02-26T12:35:09;13.10;99.90
65036;DHT22;51603;49.300;8.880;2024-02-26T12:37:34;13.40;99.90
65036;DHT22;51603;49.300;8.880;2024-02-26T12:40:04;13.20;99.90
65036;DHT22;51603;49.300;8.880;2024-02-26T12:42:32;13.20;99.90
65036;DHT22;51603;49.300;8.880;2024-02-26T12:44:58;13.40;99.90
65036;DHT22;51603;49.300;8.880;2024-02-26T12:47:24;13.40;99.90
65036;DHT22;51603;49.300;8.880;2024-02-26T12:49:49;13.70;99.90
65036;DHT22;51603;49.300;8.880;2024-02-26T12:52:16;14.00;99.90
65036;DHT22;51603;49.300;8.880;2024-02-26T12:54:42;14.00;99.90
65036;DHT22;51603;49.300;8.880;2024-02-26T12:57:09;14.20;99.90
65036;DHT22;51603;49.300;8.880;2024-02-26T12:59:35;14.20;99.90
65036;DHT22;51603;49.300;8.880;2024-02-26T13:02:02;14.20;99.90
65036;DHT22;51603;49.300;8.880;2024-02-26T13:04:29;14.20;99.90
65036;DHT22;51603;49.300;8.880;2024-02-26T13:06:55;14.20;99.90
65036;DHT22;51603;49.300;8.880;2024-02-26T13:09:26;14.20;99.90
65036;DHT22;51603;49.300;8.880;2024-02-26T13:11:55;14.20;99.90
65036;DHT22;51603;49.300;8.880;2024-02-26T13:14:21;14.30;99.90
65036;DHT22;51603;49.300;8.880;2024-02-26T13:16:57;14.10;99.90
65036;DHT22;51603;49.300;8.880;2024-02-26T13:19:23;13.90;99.90
65036;DHT22;51603;49.300;8.880;2024-02-26T13:21:49;13.80;99.90
65036;DHT22;51603;49.300;8.880;2024-02-26T13:24:15;13.70;99.90
65036;DHT22;51603;49.300;8.880;2024-02-26T13:26:40;13.70;99.90
65036;DHT22;51603;49.300;8.880;2024-02-26T13:29:06;13.80;99.90
65036;DHT22;51603;49.300;8.880;2024-02-26T13:31:38;13.80;99.90
65036;DHT22;51603;49.300;8.880;2024-02-26T13:34:04;13.90;99.90
65036;DHT22;51603;49.300;8.880;2024-02-26T13:36:29;14.00;99.90
65036;DHT22;51603;49.300;8.880;2024-02-26T13:38:55;14.00;99.90
65036;DHT22;51603;49.300;8.880;2024-02-26T13:41:24;13.90;99.90
65036;DHT22;51603;49.300;8.880;2024-02-26T13:43:50;14.00;99.90
65036;DHT22;51603;49.300;8.880;2024-02-26T13:46:15;13.90;99.90
65036;DHT22;51603;49.300;8.880;2024-02-26T13:48:42;13.70;99.90
65036;DHT22;51603;49.300;8.880;2024-02-26T13:51:08;13.70;99.90
65036;DHT22;51603;49.300;8.880;2024-02-26T13:53:33;13.70;99.90
65036;DHT22;51603;49.300;8.880;2024-02-26T13:55:59;13.80;99.90
65036;DHT22;51603;49.300;8.880;2024-02-26T13:58:27;13.80;99.90
65036;DHT22;51603;49.300;8.880;2024-02-26T14:00:53;13.80;99.90
65036;DHT22;51603;49.300;8.880;2024-02-26T14:03:20;13.90;99.90
65036;DHT22;51603;49.300;8.880;2024-02-26T14:05:45;14.10;99.90
65036;DHT22;51603;49.300;8.880;2024-02-26T14:08:11;14.20;99.90
65036;DHT22;51603;49.300;8.880;2024-02-26T14:10:36;14.30;99.90
65036;DHT22;51603;49.300;8.880;2024-02-26T14:13:03;14.30;99.90
65036;DHT22;51603;49.300;8.880;2024-02-26T14:15:28;14.30;99.90
65036;DHT22;51603;49.300;8.880;2024-02-26T14:17:54;14.20;99.90
65036;DHT22;51603;49.300;8.880;2024-02-26T14:20:22;14.00;99.90
65036;DHT22;51603;49.300;8.880;2024-02-26T14:22:49;14.00;99.90
65036;DHT22;51603;49.300;8.880;2024-02-26T14:25:15;13.90;99.90
65036;DHT22;51603;49.300;8.880;2024-02-26T14:27:40;14.00;99.90
65036;DHT22;51603;49.300;8.880;2024-02-26T14:30:07;13.90;99.80
65036;DHT22;51603;49.300;8.880;2024-02-26T14:32:32;14.00;99.90
65036;DHT22;51603;49.300;8.880;2024-02-26T14:35:01;14.10;99.90
65036;DHT22;51603;49.300;8.880;2024-02-26T14:37:28;14.20;99.80
65036;DHT22;51603;49.300;8.880;2024-02-26T14:39:53;14.20;99.10
65036;DHT22;51603;49.300;8.880;2024-02-26T14:42:19;14.20;98.90
65036;DHT22;51603;49.300;8.880;2024-02-26T14:44:45;14.10;99.90
65036;DHT22;51603;49.300;8.880;2024-02-26T14:47:13;14.10;99.90
65036;DHT22;51603;49.300;8.880;2024-02-26T14:49:38;14.10;99.90
65036;DHT22;51603;49.300;8.880;2024-02-26T14:52:04;14.10;99.90
65036;DHT22;51603;49.300;8.880;2024-02-26T14:54:30;14.30;99.90
65036;DHT22;51603;49.300;8.880;2024-02-26T14:57:02;14.30;99.90
65036;DHT22;51603;49.300;8.880;2024-02-26T14:59:28;14.30;99.90
65036;DHT22;51603;49.300;8.880;2024-02-26T15:01:53;14.30;99.90
65036;DHT22;51603;49.300;8.880;2024-02-26T15:04:19;14.20;99.70
65036;DHT22;51603;49.300;8.880;2024-02-26T15:06:44;14.10;99.90
65036;DHT22;51603;49.300;8.880;2024-02-26T15:09:10;14.00;99.90
65036;DHT22;51603;49.300;8.880;2024-02-26T15:11:39;13.90;99.90
65036;DHT22;51603;49.300;8.880;2024-02-26T15:14:05;13.90;99.90
65036;DHT22;51603;49.300;8.880;2024-02-26T15:16:31;13.80;99.90
65036;DHT22;51603;49.300;8.880;2024-02-26T15:18:56;13.70;99.90
65036;DHT22;51603;49.300;8.880;2024-02-26T15:21:22;13.60;99.90
65036;DHT22;51603;49.300;8.880;2024-02-26T15:23:47;13.50;99.90
65036;DHT22;51603;49.300;8.880;2024-02-26T15:26:15;13.40;99.90
65036;DHT22;51603;49.300;8.880;2024-02-26T15:28:42;13.30;99.90
65036;DHT22;51603;49.300;8.880;2024-02-26T15:31:08;13.20;99.90
65036;DHT22;51603;49.300;8.880;2024-02-26T15:33:33;13.10;99.90
65036;DHT22;51603;49.300;8.880;2024-02-26T15:35:59;13.00;99.90
65036;DHT22;51603;49.300;8.880;2024-02-26T15:38:24;12.90;99.90